createdAt,value
2023-05-11T00:00:16.504Z,100768.22
2023-05-11T00:02:48.598Z,100767.19
2023-05-11T00:05:22.120Z,100766.81
2023-05-11T00:07:53.885Z,100774.25
2023-05-11T00:10:25.602Z,100773.59
2023-05-11T00:12:57.891Z,100772.09
2023-05-11T00:15:29.991Z,100768.75
2023-05-11T00:18:01.813Z,100767.06
2023-05-11T00:20:35.070Z,100764.38
2023-05-11T00:23:06.890Z,100767.25
2023-05-11T00:25:39.920Z,100759.19
2023-05-11T00:28:11.564Z,100765.41
2023-05-11T00:30:45.338Z,100771.97
2023-05-11T00:33:17.146Z,100770.13
2023-05-11T00:35:50.481Z,100760.56
2023-05-11T00:38:22.320Z,100775.69
2023-05-11T00:40:54.236Z,100766.94
2023-05-11T00:43:26.190Z,100769.00
2023-05-11T00:45:57.974Z,100772.69
2023-05-11T00:48:29.793Z,100769.34
2023-05-11T00:51:05.078Z,100766.47
2023-05-11T00:53:37.330Z,100764.78
2023-05-11T00:56:11.366Z,100764.63
2023-05-11T00:58:43.464Z,100763.97
2023-05-11T01:01:17.825Z,100773.03
2023-05-11T01:03:50.275Z,100769.34
2023-05-11T01:06:36.179Z,100765.81
2023-05-11T01:09:15.793Z,100769.34
2023-05-11T01:11:54.735Z,100775.06
2023-05-11T01:14:35.683Z,100770.72
2023-05-11T01:17:22.888Z,100769.03
2023-05-11T01:20:04.056Z,100770.88
2023-05-11T01:22:57.695Z,100776.25
2023-05-11T01:25:51.364Z,100771.06
2023-05-11T01:28:59.127Z,100771.72
2023-05-11T01:31:34.938Z,100772.72
2023-05-11T01:34:14.138Z,100773.75
2023-05-11T01:36:54.668Z,100781.63
2023-05-11T01:39:37.033Z,100774.59
2023-05-11T01:42:13.618Z,100775.75
2023-05-11T01:44:49.492Z,100775.97
2023-05-11T01:47:26.183Z,100774.91
2023-05-11T01:50:01.912Z,100774.28
2023-05-11T01:52:36.610Z,100777.13
2023-05-11T01:55:11.323Z,100778.16
2023-05-11T01:57:43.286Z,100774.78
2023-05-11T02:00:17.406Z,100779.31
2023-05-11T02:02:52.153Z,100774.31
2023-05-11T02:05:43.808Z,100778.88
2023-05-11T02:08:17.987Z,100784.25
2023-05-11T02:10:51.683Z,100781.56
2023-05-11T02:13:28.375Z,100784.25
2023-05-11T02:16:02.790Z,100789.13
2023-05-11T02:18:40.020Z,100783.75
2023-05-11T02:21:16.212Z,100780.88
2023-05-11T02:23:51.335Z,100784.56
2023-05-11T02:26:23.592Z,100786.59
2023-05-11T02:28:55.332Z,100785.94
2023-05-11T02:31:33.455Z,100787.94
2023-05-11T02:34:18.983Z,100782.75
2023-05-11T02:36:54.102Z,100789.97
2023-05-11T02:39:32.833Z,100788.13
2023-05-11T02:42:12.117Z,100790.63
2023-05-11T02:44:46.759Z,100790.13
2023-05-11T02:47:22.255Z,100791.13
2023-05-11T02:50:00.250Z,100787.63
2023-05-11T02:52:35.893Z,100786.13
2023-05-11T02:55:10.817Z,100786.66
2023-05-11T02:57:43.647Z,100785.63
2023-05-11T03:00:17.789Z,100782.13
2023-05-11T03:02:49.844Z,100783.97
2023-05-11T03:05:24.202Z,100786.66
2023-05-11T03:08:00.811Z,100791.00
2023-05-11T03:10:33.295Z,100783.13
2023-05-11T03:13:06.517Z,100795.72
2023-05-11T03:15:38.884Z,100784.66
2023-05-11T03:18:12.445Z,100794.38
2023-05-11T03:20:48.675Z,100788.16
2023-05-11T03:23:22.222Z,100794.22
2023-05-11T03:25:54.144Z,100787.19
2023-05-11T03:28:29.017Z,100790.88
2023-05-11T03:31:01.055Z,100791.06
2023-05-11T03:33:32.989Z,100796.44
2023-05-11T03:36:10.506Z,100791.06
2023-05-11T03:38:42.941Z,100794.75
2023-05-11T03:41:18.388Z,100792.25
2023-05-11T03:43:53.694Z,100793.41
2023-05-11T03:46:28.110Z,100787.88
2023-05-11T03:49:00.286Z,100787.19
2023-05-11T03:51:35.485Z,100790.91
2023-05-11T03:54:09.744Z,100788.38
2023-05-11T03:56:41.798Z,100784.84
2023-05-11T03:59:17.659Z,100784.69
2023-05-11T04:01:52.925Z,100777.63
2023-05-11T04:04:31.203Z,100781.31
2023-05-11T04:07:04.694Z,100786.69
2023-05-11T04:09:36.691Z,100783.38
2023-05-11T04:12:11.423Z,100788.72
2023-05-11T04:14:43.237Z,100781.69
2023-05-11T04:17:14.974Z,100789.94
2023-05-11T04:19:46.925Z,100787.25
2023-05-11T04:22:19.920Z,100797.16
2023-05-11T04:24:51.742Z,100795.09
2023-05-11T04:27:23.640Z,100795.09
2023-05-11T04:29:56.946Z,100786.22
2023-05-11T04:32:29.124Z,100784.38
2023-05-11T04:35:00.680Z,100797.78
2023-05-11T04:37:33.712Z,100793.25
2023-05-11T04:40:05.809Z,100793.25
2023-05-11T04:42:37.615Z,100796.16
2023-05-11T04:45:11.399Z,100790.78
2023-05-11T04:47:43.280Z,100798.97
2023-05-11T04:50:16.219Z,100805.19
2023-05-11T04:52:49.579Z,100801.50
2023-05-11T04:55:21.381Z,100796.47
2023-05-11T04:57:53.242Z,100804.19
2023-05-11T05:00:25.004Z,100800.66
2023-05-11T05:02:56.593Z,100806.88
2023-05-11T05:05:28.553Z,100799.63
2023-05-11T05:08:01.641Z,100799.81
2023-05-11T05:10:33.626Z,100806.41
2023-05-11T05:13:05.514Z,100808.88
2023-05-11T05:15:37.406Z,100807.88
2023-05-11T05:18:09.173Z,100814.94
2023-05-11T05:20:41.191Z,100819.63
2023-05-11T05:23:14.336Z,100816.09
2023-05-11T05:25:46.538Z,100814.25
2023-05-11T05:28:18.138Z,100815.09
2023-05-11T05:30:50.103Z,100806.88
2023-05-11T05:33:21.927Z,100820.97
2023-05-11T05:35:53.743Z,100828.03
2023-05-11T05:38:26.742Z,100816.44
2023-05-11T05:40:58.980Z,100822.47
2023-05-11T05:43:30.590Z,100824.31
2023-05-11T05:46:02.431Z,100818.94
2023-05-11T05:48:34.310Z,100837.59
2023-05-11T05:51:06.137Z,100835.91
2023-05-11T05:53:39.202Z,100836.09
2023-05-11T05:56:11.523Z,100842.31
2023-05-11T05:58:44.035Z,100840.44
2023-05-11T06:01:15.984Z,100840.94
2023-05-11T06:03:48.197Z,100846.78
2023-05-11T06:06:20.653Z,100848.31
2023-05-11T06:08:54.165Z,100840.06
2023-05-11T06:11:25.733Z,100850.81
2023-05-11T06:13:57.583Z,100848.81
2023-05-11T06:16:30.245Z,100855.84
2023-05-11T06:19:02.105Z,100857.38
2023-05-11T06:21:33.643Z,100849.13
2023-05-11T06:24:06.618Z,100855.50
2023-05-11T06:26:38.583Z,100855.34
2023-05-11T06:29:10.507Z,100849.81
2023-05-11T06:31:42.338Z,100849.47
2023-05-11T06:34:14.278Z,100845.56
2023-05-11T06:36:46.157Z,100848.06
2023-05-11T06:39:19.252Z,100847.06
2023-05-11T06:41:56.656Z,100844.38
2023-05-11T06:44:29.485Z,100844.22
2023-05-11T06:47:01.605Z,100848.75
2023-05-11T06:49:33.477Z,100846.06
2023-05-11T06:52:05.664Z,100850.44
2023-05-11T06:54:38.987Z,100845.59
2023-05-11T06:57:12.117Z,100842.53
2023-05-11T06:59:44.989Z,100847.72
2023-05-11T07:02:16.686Z,100852.09
2023-05-11T07:04:48.559Z,100853.78
2023-05-11T07:07:20.412Z,100847.38
2023-05-11T07:09:53.646Z,100856.13
2023-05-11T07:12:25.618Z,100850.91
2023-05-11T07:14:57.459Z,100857.97
2023-05-11T07:17:29.601Z,100852.59
2023-05-11T07:20:01.596Z,100846.22
2023-05-11T07:22:33.504Z,100855.09
2023-05-11T07:25:06.729Z,100853.25
2023-05-11T07:27:38.599Z,100861.16
2023-05-11T07:30:10.613Z,100864.69
2023-05-11T07:32:42.343Z,100854.78
2023-05-11T07:35:15.055Z,100853.09
2023-05-11T07:37:46.867Z,100855.78
2023-05-11T07:40:20.840Z,100858.94
2023-05-11T07:42:54.062Z,100858.94
2023-05-11T07:45:25.751Z,100856.06
2023-05-11T07:47:57.636Z,100859.44
2023-05-11T07:50:29.546Z,100866.47
2023-05-11T07:53:01.458Z,100859.44
2023-05-11T07:55:35.190Z,100860.28
2023-05-11T07:58:07.072Z,100865.47
2023-05-11T08:00:38.902Z,100871.84
2023-05-11T08:03:10.870Z,100871.72
2023-05-11T08:05:42.702Z,100870.56
2023-05-11T08:08:15.780Z,100873.03
2023-05-11T08:10:49.054Z,100879.25
2023-05-11T08:13:20.975Z,100874.09
2023-05-11T08:15:52.821Z,100875.94
2023-05-11T08:18:27.900Z,100879.25
2023-05-11T08:21:00.080Z,100875.56
2023-05-11T08:23:32.019Z,100869.34
2023-05-11T08:26:05.413Z,100878.06
2023-05-11T08:28:37.203Z,100875.22
2023-05-11T08:31:10.260Z,100874.22
2023-05-11T08:33:42.087Z,100882.09
2023-05-11T08:36:13.776Z,100874.88
2023-05-11T08:38:45.541Z,100880.25
2023-05-11T08:41:18.606Z,100877.72
2023-05-11T08:43:51.076Z,100881.59
2023-05-11T08:46:27.141Z,100880.25
2023-05-11T08:48:59.195Z,100883.94
2023-05-11T08:51:32.761Z,100877.88
2023-05-11T08:54:06.172Z,100880.22
2023-05-11T08:56:42.039Z,100873.81
2023-05-11T08:59:18.825Z,100879.66
2023-05-11T09:01:53.436Z,100876.13
2023-05-11T09:04:27.032Z,100881.72
2023-05-11T09:07:01.402Z,100877.19
2023-05-11T09:09:34.796Z,100878.03
2023-05-11T09:12:08.817Z,100879.66
2023-05-11T09:14:40.906Z,100876.81
2023-05-11T09:17:12.815Z,100880.16
2023-05-11T09:20:05.087Z,100886.88
2023-05-11T09:22:42.050Z,100882.00
2023-05-11T09:25:18.380Z,100872.78
2023-05-11T09:27:52.202Z,100893.44
2023-05-11T09:30:26.639Z,100873.94
2023-05-11T09:33:02.264Z,100882.84
2023-05-11T09:35:37.262Z,100876.81
2023-05-11T09:38:12.672Z,100886.56
2023-05-11T09:40:51.336Z,100873.13
2023-05-11T09:43:29.340Z,100883.53
2023-05-11T09:46:07.299Z,100878.16
2023-05-11T09:48:39.396Z,100879.16
2023-05-11T09:51:12.061Z,100882.69
2023-05-11T09:53:46.282Z,100880.00
2023-05-11T09:56:18.659Z,100877.13
2023-05-11T09:58:57.354Z,100879.31
2023-05-11T10:01:37.984Z,100872.78
2023-05-11T10:04:22.967Z,100877.78
2023-05-11T10:06:56.468Z,100867.69
2023-05-11T10:09:29.513Z,100874.09
2023-05-11T10:12:02.791Z,100874.09
2023-05-11T10:14:37.386Z,100877.59
2023-05-11T10:17:11.835Z,100874.44
2023-05-11T10:19:43.975Z,100876.47
2023-05-11T10:22:16.299Z,100872.78
2023-05-11T10:24:49.201Z,100867.88
2023-05-11T10:27:22.083Z,100865.00
2023-05-11T10:29:56.264Z,100866.50
2023-05-11T10:32:29.461Z,100865.31
2023-05-11T10:35:04.088Z,100866.81
2023-05-11T10:37:37.024Z,100860.59
2023-05-11T10:40:11.320Z,100859.38
2023-05-11T10:43:19.354Z,100861.75
2023-05-11T10:46:03.915Z,100862.56
2023-05-11T10:49:08.027Z,100862.22
2023-05-11T10:52:13.358Z,100861.66
2023-05-11T10:55:02.113Z,100864.19
2023-05-11T10:57:53.332Z,100858.81
2023-05-11T11:01:28.038Z,100851.03
2023-05-11T11:04:06.514Z,100857.63
2023-05-11T11:06:40.415Z,100852.06
2023-05-11T11:09:14.680Z,100856.41
2023-05-11T11:11:50.973Z,100858.25
2023-05-11T11:14:26.175Z,100858.47
2023-05-11T11:17:31.718Z,100854.75
2023-05-11T11:20:07.360Z,100865.84
2023-05-11T11:22:49.846Z,100855.09
2023-05-11T11:25:57.405Z,100858.47
2023-05-11T11:28:29.274Z,100855.94
2023-05-11T11:31:27.426Z,100857.78
2023-05-11T11:34:19.097Z,100853.06
2023-05-11T11:37:10.077Z,100859.31
2023-05-11T11:40:09.431Z,100859.31
2023-05-11T11:42:48.221Z,100861.78
2023-05-11T11:45:33.789Z,100859.78
2023-05-11T11:48:21.811Z,100861.28
2023-05-11T11:51:06.530Z,100860.91
2023-05-11T11:54:09.698Z,100861.56
2023-05-11T11:56:46.438Z,100866.13
2023-05-11T11:59:20.218Z,100857.84
2023-05-11T12:02:01.110Z,100867.09
2023-05-11T12:04:51.635Z,100864.19
2023-05-11T12:07:27.762Z,100860.28
2023-05-11T12:09:59.554Z,100856.06
2023-05-11T12:12:31.867Z,100854.50
2023-05-11T12:15:06.751Z,100851.06
2023-05-11T12:17:41.358Z,100846.53
2023-05-11T12:20:18.524Z,100839.94
2023-05-11T12:22:52.087Z,100838.91
2023-05-11T12:25:24.328Z,100845.78
2023-05-11T12:28:00.999Z,100843.09
2023-05-11T12:30:36.275Z,100841.97
2023-05-11T12:33:15.587Z,100839.53
2023-05-11T12:35:52.712Z,100832.78
2023-05-11T12:38:26.322Z,100833.72
2023-05-11T12:40:58.666Z,100834.44
2023-05-11T12:43:30.634Z,100836.22
2023-05-11T12:46:04.230Z,100833.38
2023-05-11T12:48:36.072Z,100840.78
2023-05-11T12:51:07.911Z,100841.16
2023-05-11T12:53:43.084Z,100843.22
2023-05-11T12:56:14.886Z,100838.00
2023-05-11T12:58:46.856Z,100835.66
2023-05-11T13:01:28.090Z,100836.03
2023-05-11T13:04:00.343Z,100833.34
2023-05-11T13:06:32.730Z,100832.50
2023-05-11T13:09:04.523Z,100832.34
2023-05-11T13:11:37.262Z,100838.09
2023-05-11T13:14:19.157Z,100842.63
2023-05-11T13:16:59.036Z,100841.78
2023-05-11T13:19:34.779Z,100833.41
2023-05-11T13:22:08.154Z,100824.31
2023-05-11T13:24:40.025Z,100818.94
2023-05-11T13:27:11.884Z,100818.94
2023-05-11T13:29:43.954Z,100823.09
2023-05-11T13:32:16.877Z,100814.38
2023-05-11T13:34:48.797Z,100812.34
2023-05-11T13:37:20.657Z,100811.53
2023-05-11T13:39:52.584Z,100817.91
2023-05-11T13:42:24.804Z,100815.59
2023-05-11T13:44:56.419Z,100816.44
2023-05-11T13:47:29.637Z,100815.41
2023-05-11T13:50:02.184Z,100813.38
2023-05-11T13:52:34.023Z,100819.59
2023-05-11T13:55:08.521Z,100827.56
2023-05-11T13:57:40.146Z,100815.13
2023-05-11T14:00:12.847Z,100825.91
2023-05-11T14:02:48.197Z,100824.84
2023-05-11T14:05:20.398Z,100813.06
2023-05-11T14:07:52.610Z,100820.97
2023-05-11T14:10:24.936Z,100809.84
2023-05-11T14:12:56.882Z,100813.84
2023-05-11T14:15:28.828Z,100813.75
2023-05-11T14:18:03.558Z,100816.34
2023-05-11T14:20:37.356Z,100816.66
2023-05-11T14:23:09.401Z,100809.84
2023-05-11T14:25:41.176Z,100812.84
2023-05-11T14:28:13.029Z,100802.06
2023-05-11T14:30:44.977Z,100804.09
2023-05-11T14:33:18.318Z,100798.69
2023-05-11T14:35:50.621Z,100788.84
2023-05-11T14:38:22.461Z,100796.84
2023-05-11T14:40:54.382Z,100786.34
2023-05-11T14:43:26.280Z,100782.22
2023-05-11T14:45:58.429Z,100787.22
2023-05-11T14:48:31.567Z,100796.38
2023-05-11T14:51:03.589Z,100791.16
2023-05-11T14:53:35.537Z,100788.53
2023-05-11T14:56:07.704Z,100787.53
2023-05-11T14:58:39.297Z,100786.88
2023-05-11T15:01:11.113Z,100781.28
2023-05-11T15:03:44.196Z,100775.72
2023-05-11T15:06:21.580Z,100787.13
2023-05-11T15:08:53.295Z,100782.22
2023-05-11T15:11:25.205Z,100782.41
2023-05-11T15:13:57.113Z,100787.81
2023-05-11T15:16:29.094Z,100783.44
2023-05-11T15:19:02.368Z,100790.13
2023-05-11T15:21:34.151Z,100796.16
2023-05-11T15:24:07.551Z,100803.22
2023-05-11T15:26:41.173Z,100802.84
2023-05-11T15:29:12.997Z,100794.94
2023-05-11T15:31:44.911Z,100795.00
2023-05-11T15:34:17.927Z,100798.91
2023-05-11T15:36:50.053Z,100803.84
2023-05-11T15:39:21.768Z,100808.00
2023-05-11T15:41:53.594Z,100808.63
2023-05-11T15:44:25.492Z,100806.59
2023-05-11T15:46:57.519Z,100796.44
2023-05-11T15:49:31.056Z,100803.19
2023-05-11T15:52:02.672Z,100815.41
2023-05-11T15:54:35.993Z,100811.16
2023-05-11T15:57:07.986Z,100809.00
2023-05-11T15:59:39.789Z,100807.66
2023-05-11T16:02:11.513Z,100805.84
2023-05-11T16:04:44.747Z,100816.31
2023-05-11T16:07:16.783Z,100816.56
2023-05-11T16:09:48.731Z,100816.38
2023-05-11T16:12:20.599Z,100827.66
2023-05-11T16:14:52.460Z,100820.88
2023-05-11T16:17:24.349Z,100823.09
2023-05-11T16:19:59.319Z,100821.91
2023-05-11T16:22:31.176Z,100806.56
2023-05-11T16:25:02.874Z,100804.06
2023-05-11T16:27:34.798Z,100809.91
2023-05-11T16:30:21.627Z,100811.59
2023-05-11T16:32:55.292Z,100824.94
2023-05-11T16:35:29.381Z,100825.38
2023-05-11T16:38:02.509Z,100824.69
2023-05-11T16:40:34.329Z,100824.78
2023-05-11T16:43:06.159Z,100833.09
2023-05-11T16:45:37.924Z,100830.53
2023-05-11T16:48:09.898Z,100829.88
2023-05-11T16:50:43.382Z,100829.22
2023-05-11T16:53:15.424Z,100823.81
2023-05-11T16:55:47.216Z,100832.97
2023-05-11T16:58:19.469Z,100834.63
2023-05-11T17:00:51.187Z,100824.56
2023-05-11T17:03:23.548Z,100820.41
2023-05-11T17:05:57.340Z,100820.84
2023-05-11T17:08:29.609Z,100819.22
2023-05-11T17:11:01.630Z,100815.88
2023-05-11T17:13:33.667Z,100812.91
2023-05-11T17:16:05.514Z,100815.75
2023-05-11T17:18:38.280Z,100803.91
2023-05-11T17:21:11.637Z,100816.59
2023-05-11T17:23:43.618Z,100820.03
2023-05-11T17:26:16.918Z,100802.81
2023-05-11T17:28:48.957Z,100807.81
2023-05-11T17:31:20.910Z,100805.69
2023-05-11T17:33:52.784Z,100813.78
2023-05-11T17:36:29.147Z,100822.50
2023-05-11T17:39:01.378Z,100821.44
2023-05-11T17:41:33.138Z,100829.69
2023-05-11T17:44:05.291Z,100828.84
2023-05-11T17:46:36.958Z,100833.81
2023-05-11T17:49:08.947Z,100833.34
2023-05-11T17:51:42.614Z,100834.59
2023-05-11T17:54:14.833Z,100830.22
2023-05-11T17:56:46.794Z,100833.28
2023-05-11T17:59:21.025Z,100833.28
2023-05-11T18:01:53.220Z,100829.31
2023-05-11T18:04:25.626Z,100841.13
2023-05-11T18:07:00.265Z,100845.88
2023-05-11T18:09:31.948Z,100846.91
2023-05-11T18:12:04.313Z,100853.16
2023-05-11T18:14:36.351Z,100850.25
2023-05-11T18:17:08.059Z,100856.03
2023-05-11T18:19:39.924Z,100858.53
2023-05-11T18:22:13.002Z,100862.47
2023-05-11T18:24:44.785Z,100858.09
2023-05-11T18:27:16.673Z,100858.88
2023-05-11T18:29:48.500Z,100871.31
2023-05-11T18:32:20.511Z,100870.50
2023-05-11T18:34:52.402Z,100870.50
2023-05-11T18:37:25.603Z,100868.63
2023-05-11T18:39:57.546Z,100880.47
2023-05-11T18:42:29.438Z,100882.50
2023-05-11T18:45:01.285Z,100886.25
2023-05-11T18:47:34.785Z,100882.41
2023-05-11T18:50:07.618Z,100886.72
2023-05-11T18:52:40.829Z,100886.44
2023-05-11T18:55:12.728Z,100888.13
2023-05-11T18:57:44.340Z,100890.19
2023-05-11T19:00:18.303Z,100889.34
2023-05-11T19:02:51.891Z,100895.59
2023-05-11T19:05:25.628Z,100891.84
2023-05-11T19:07:58.795Z,100891.84
2023-05-11T19:10:33.701Z,100883.94
2023-05-11T19:13:05.437Z,100879.78
2023-05-11T19:15:37.447Z,100885.16
2023-05-11T19:18:10.405Z,100882.66
2023-05-11T19:20:43.116Z,100883.84
2023-05-11T19:23:16.974Z,100889.22
2023-05-11T19:25:48.902Z,100897.88
2023-05-11T19:28:20.956Z,100893.50
2023-05-11T19:31:00.442Z,100888.31
2023-05-11T19:33:32.295Z,100896.41
2023-05-11T19:36:04.454Z,100908.22
2023-05-11T19:38:38.703Z,100905.88
2023-05-11T19:41:10.347Z,100913.34
2023-05-11T19:43:40.271Z,100913.16
2023-05-11T19:46:12.373Z,100916.22
2023-05-11T19:48:44.275Z,100932.56
2023-05-11T19:51:16.925Z,100928.22
2023-05-11T19:53:50.213Z,100927.56
2023-05-11T19:56:22.159Z,100931.09
2023-05-11T19:58:54.027Z,100929.63
2023-05-11T20:01:26.345Z,100931.31
2023-05-11T20:03:58.295Z,100932.31
2023-05-11T20:06:29.975Z,100936.88
2023-05-11T20:09:02.898Z,100943.28
2023-05-11T20:11:34.860Z,100941.63
2023-05-11T20:14:06.745Z,100942.81
2023-05-11T20:16:38.806Z,100942.16
2023-05-11T20:19:10.658Z,100951.28
2023-05-11T20:21:42.792Z,100957.72
2023-05-11T20:24:15.957Z,100957.41
2023-05-11T20:26:47.874Z,100947.63
2023-05-11T20:29:19.711Z,100952.19
2023-05-11T20:31:51.706Z,100951.38
2023-05-11T20:34:23.566Z,100949.69
2023-05-11T20:36:55.720Z,100949.03
2023-05-11T20:39:29.111Z,100949.22
2023-05-11T20:42:04.674Z,100955.84
2023-05-11T20:44:36.352Z,100947.75
2023-05-11T20:47:09.335Z,100952.47
2023-05-11T20:49:41.144Z,100959.06
2023-05-11T20:52:14.181Z,100956.44
2023-05-11T20:54:48.963Z,100952.47
2023-05-11T20:57:20.962Z,100959.22
2023-05-11T21:02:27.451Z,100954.75
2023-05-11T21:05:02.274Z,100956.97
2023-05-11T21:07:34.332Z,100957.13
2023-05-11T21:10:07.760Z,100972.50
2023-05-11T21:12:39.343Z,100974.72
2023-05-11T21:15:12.557Z,100971.34
2023-05-11T21:17:45.042Z,100967.81
2023-05-11T21:20:18.852Z,100966.47
2023-05-11T21:22:50.586Z,100968.72
2023-05-11T21:25:23.731Z,100973.06
2023-05-11T21:27:56.118Z,100973.97
2023-05-11T21:30:28.101Z,100978.88
2023-05-11T21:32:59.947Z,100975.19
2023-05-11T21:35:34.553Z,100976.19
2023-05-11T21:38:06.481Z,100972.56
2023-05-11T21:40:39.518Z,100985.34
2023-05-11T21:43:13.387Z,100982.00
2023-05-11T21:45:47.961Z,100982.34
2023-05-11T21:48:19.942Z,100990.41
2023-05-11T21:50:57.699Z,101000.16
2023-05-11T21:53:30.535Z,100992.28
2023-05-11T21:56:03.737Z,100998.81
2023-05-11T21:58:35.725Z,100992.16
2023-05-11T22:01:08.156Z,100993.31
2023-05-11T22:03:40.084Z,100991.31
2023-05-11T22:06:12.219Z,100998.53
2023-05-11T22:08:44.165Z,100990.63
2023-05-11T22:11:17.251Z,100987.13
2023-05-11T22:13:48.822Z,100990.47
2023-05-11T22:16:20.686Z,100989.13
2023-05-11T22:18:52.679Z,100996.19
2023-05-11T22:21:26.611Z,100996.19
2023-05-11T22:23:59.125Z,100992.50
2023-05-11T22:26:32.238Z,100993.31
2023-05-11T22:29:04.511Z,100996.84
2023-05-11T22:31:36.251Z,100993.16
2023-05-11T22:34:08.115Z,101002.25
2023-05-11T22:36:39.908Z,101008.19
2023-05-11T22:39:12.391Z,100998.22
2023-05-11T22:41:45.330Z,101001.94
2023-05-11T22:44:17.730Z,101006.13
2023-05-11T22:46:49.624Z,101003.97
2023-05-11T22:49:21.629Z,101005.00
2023-05-11T22:51:56.755Z,101004.31
2023-05-11T22:54:28.712Z,101011.06
2023-05-11T22:57:03.387Z,101013.09
2023-05-11T22:59:35.241Z,101004.69
2023-05-11T23:02:08.211Z,101004.69
2023-05-11T23:04:40.036Z,101007.72
2023-05-11T23:07:12.726Z,101003.69
2023-05-11T23:09:44.751Z,101008.78
2023-05-11T23:12:18.321Z,101011.84
2023-05-11T23:14:50.690Z,101009.81
2023-05-11T23:17:22.634Z,101024.47
2023-05-11T23:19:54.306Z,101038.78
2023-05-11T23:22:26.207Z,101028.66
2023-05-11T23:25:00.879Z,101025.53
2023-05-11T23:27:33.792Z,101016.13
2023-05-11T23:30:05.923Z,101022.16
2023-05-11T23:32:38.064Z,101023.34
2023-05-11T23:35:11.894Z,101020.66
2023-05-11T23:37:43.461Z,101021.66
2023-05-11T23:40:16.210Z,101033.47
2023-05-11T23:42:49.985Z,101024.19
2023-05-11T23:45:22.071Z,101023.84
2023-05-11T23:47:53.673Z,101024.69
2023-05-11T23:50:25.399Z,101021.16
2023-05-11T23:52:57.214Z,101023.34
2023-05-11T23:55:29.144Z,101019.66
2023-05-11T23:58:02.409Z,101023.00
